Time;durP1;ratioP1;P1;durP2;ratioP2;P2;SDS_P1;SDS_P2;PMS_P1;PMS_P2;Temp;Humidity;BMP_temperature;BMP_pressure;BME280_temperature;BME280_humidity;BME280_pressure;Samples;Min_cycle;Max_cycle;Signal;HPM_P1;HPM_P2
2020/07/21 13:11:03;;;;;;;7.7;4.6;;;;;;;27.47;48.92383;961.5308;;;;
2020/07/21 13:13:28;;;;;;;7.2;3.3;;;;;;;27.48;49.35547;961.4998;;;;
2020/07/21 13:16:07;;;;;;;5.7;2.9;;;;;;;27.63;48.46191;961.4918;;;;
2020/07/21 13:18:34;;;;;;;7.7;2.9;;;;;;;27.9;46.7207;961.384;;;;
2020/07/21 13:20:59;;;;;;;5.8;2.9;;;;;;;27.95;47.39453;961.4291;;;;
2020/07/21 13:23:26;;;;;;;6.3;2.9;;;;;;;27.42;48.72656;961.4459;;;;
2020/07/21 13:25:52;;;;;;;7.1;2.9;;;;;;;27.49;48.91406;961.4529;;;;
2020/07/21 13:28:17;;;;;;;6.7;3.3;;;;;;;27.44;48.80176;961.4894;;;;
2020/07/21 13:30:42;;;;;;;6.2;2.7;;;;;;;27.28;49.89453;961.4387;;;;
2020/07/21 13:33:09;;;;;;;6.9;3.1;;;;;;;26.95;50.75391;961.4369;;;;
2020/07/21 13:35:34;;;;;;;6.1;3.1;;;;;;;26.77;51.62891;961.447;;;;
2020/07/21 13:38:00;;;;;;;8.3;3.1;;;;;;;26.64;50.52832;961.4462;;;;
2020/07/21 13:40:25;;;;;;;7.4;3.2;;;;;;;26.7;51.40723;961.4213;;;;
2020/07/21 13:42:53;;;;;;;8.2;3.3;;;;;;;26.74;50.82617;961.3661;;;;
2020/07/21 13:45:18;;;;;;;8.9;3;;;;;;;26.44;51.86621;961.3222;;;;
2020/07/21 13:47:44;;;;;;;5.5;3.3;;;;;;;26.48;52.88477;961.3042;;;;
2020/07/21 13:50:09;;;;;;;6.9;3;;;;;;;26.61;51.54004;961.3639;;;;
2020/07/21 13:52:35;;;;;;;7.9;3.2;;;;;;;26.51;51.45605;961.3943;;;;
2020/07/21 13:55:00;;;;;;;4.9;2.7;;;;;;;26.64;52.65332;961.3727;;;;
2020/07/21 13:57:26;;;;;;;7.1;3.2;;;;;;;27.18;50.81641;961.4097;;;;
2020/07/21 13:59:52;;;;;;;9.2;3.3;;;;;;;27.33;49.75684;961.4028;;;;
2020/07/21 14:02:17;;;;;;;8.3;3.5;;;;;;;27.23;51.19141;961.3441;;;;
2020/07/21 14:04:43;;;;;;;6.8;3.6;;;;;;;27.31;53.24609;961.2952;;;;
2020/07/21 14:07:08;;;;;;;5.8;2.8;;;;;;;27.37;52.89355;961.2478;;;;
2020/07/21 14:09:33;;;;;;;4.3;2.6;;;;;;;27.39;50.87598;961.1891;;;;
2020/07/21 14:11:58;;;;;;;5.4;3.3;;;;;;;27.28;51.58008;961.1465;;;;
2020/07/21 14:14:23;;;;;;;5.4;3.2;;;;;;;27.02;51.84961;961.1144;;;;
2020/07/21 14:16:48;;;;;;;6.5;3;;;;;;;26.94;53.02246;961.0709;;;;
2020/07/21 14:19:13;;;;;;;5.9;3.1;;;;;;;27.01;53.32813;961.0955;;;;
2020/07/21 14:21:39;;;;;;;6.4;3;;;;;;;26.99;53.13574;961.1053;;;;
2020/07/21 14:24:04;;;;;;;7.1;3.4;;;;;;;26.64;53.32129;961.1822;;;;
2020/07/21 14:26:29;;;;;;;7.2;3.6;;;;;;;26.56;53.83691;961.327;;;;
2020/07/21 14:28:55;;;;;;;4.4;3.1;;;;;;;26.99;52.41992;961.3767;;;;
2020/07/21 14:31:20;;;;;;;5.6;3.5;;;;;;;27.31;52.76758;961.2867;;;;
2020/07/21 14:33:45;;;;;;;5.1;3.4;;;;;;;27.46;51.75586;961.2802;;;;
2020/07/21 14:36:11;;;;;;;5.8;2.9;;;;;;;27.38;52.07129;961.2828;;;;
2020/07/21 14:38:36;;;;;;;6.4;3.2;;;;;;;27.17;53.3125;961.2301;;;;
2020/07/21 14:41:02;;;;;;;6.8;3;;;;;;;26.75;54.27734;961.1869;;;;
2020/07/21 14:43:27;;;;;;;8.5;3.6;;;;;;;26.65;54.91016;961.1332;;;;
2020/07/21 14:45:52;;;;;;;6.9;3.8;;;;;;;26.63;55.11133;961.2186;;;;
2020/07/21 14:48:17;;;;;;;6.3;3.1;;;;;;;26.52;56.06348;961.1462;;;;
2020/07/21 14:50:42;;;;;;;6.4;3.1;;;;;;;26.47;56.59375;961.077;;;;
2020/07/21 14:53:08;;;;;;;5.8;3.3;;;;;;;26.44;56.6377;960.9747;;;;
2020/07/21 14:55:34;;;;;;;7.7;3.6;;;;;;;26.19;57.29883;960.9444;;;;
2020/07/21 14:58:00;;;;;;;6.4;3.4;;;;;;;26;57.96484;961.0803;;;;
2020/07/21 15:00:29;;;;;;;7.3;3.4;;;;;;;25.92;57.76563;961.1339;;;;
2020/07/21 15:02:55;;;;;;;7.5;3.7;;;;;;;25.91;58.39551;961.3383;;;;
2020/07/21 15:05:21;;;;;;;6.5;3.4;;;;;;;25.46;62.00293;961.3058;;;;
2020/07/21 15:07:46;;;;;;;5.9;3.4;;;;;;;25.23;64.29102;961.296;;;;
2020/07/21 15:10:25;;;;;;;6.9;3.6;;;;;;;25.27;65.00098;961.3282;;;;
2020/07/21 15:12:51;;;;;;;6;3.4;;;;;;;25.35;65.02344;961.3499;;;;
2020/07/21 15:15:16;;;;;;;4.5;3.5;;;;;;;25.07;65.7207;961.3198;;;;
2020/07/21 15:17:43;;;;;;;6.1;3.4;;;;;;;25.1;66.85449;961.3484;;;;
2020/07/21 15:20:09;;;;;;;6.6;3.9;;;;;;;25.03;66.26074;961.3535;;;;
2020/07/21 15:22:35;;;;;;;7;3.6;;;;;;;24.9;65.09961;961.3331;;;;
2020/07/21 15:25:00;;;;;;;6.8;3.6;;;;;;;24.86;66.15234;961.3517;;;;
2020/07/21 15:27:26;;;;;;;10.4;3.8;;;;;;;24.9;65.41016;961.3896;;;;
2020/07/21 15:29:51;;;;;;;9.4;4.1;;;;;;;24.85;66.54395;961.4556;;;;
2020/07/21 15:32:21;;;;;;;5.5;3.3;;;;;;;24.99;64.95801;961.4042;;;;
2020/07/21 15:34:46;;;;;;;9.4;4.1;;;;;;;25.02;64.79688;961.3865;;;;
2020/07/21 15:37:13;;;;;;;8;3.5;;;;;;;24.9;65.20605;961.4416;;;;
2020/07/21 15:39:38;;;;;;;8;3.9;;;;;;;24.85;64.92676;961.4439;;;;
2020/07/21 15:42:06;;;;;;;6.4;3.6;;;;;;;24.88;66.82129;961.4345;;;;
2020/07/21 15:44:31;;;;;;;6.1;3.5;;;;;;;24.92;67.06543;961.4934;;;;
2020/07/21 15:47:00;;;;;;;6.3;3.4;;;;;;;24.99;66.04199;961.5859;;;;
2020/07/21 15:49:27;;;;;;;7.7;3.4;;;;;;;25.07;66.33887;961.6024;;;;
2020/07/21 15:51:56;;;;;;;6.7;3.7;;;;;;;24.97;69.59375;961.6398;;;;
2020/07/21 15:54:21;;;;;;;7.2;3.8;;;;;;;24.94;70.4707;961.67;;;;
2020/07/21 15:56:48;;;;;;;6.7;3.6;;;;;;;24.89;72.03125;961.6795;;;;
2020/07/21 15:59:13;;;;;;;6.7;3.3;;;;;;;24.98;72.31836;961.673;;;;
2020/07/21 16:01:45;;;;;;;7.5;3.5;;;;;;;24.77;70.04883;961.7234;;;;
2020/07/21 16:04:12;;;;;;;6;3.6;;;;;;;24.57;68.81934;961.7293;;;;
2020/07/21 16:06:37;;;;;;;5;3.3;;;;;;;24.6;68.43066;961.6242;;;;
2020/07/21 16:09:02;;;;;;;7.7;3.5;;;;;;;24.74;70.65039;961.5101;;;;
2020/07/21 16:11:27;;;;;;;7.8;3.5;;;;;;;24.68;73.625;961.5922;;;;
2020/07/21 16:13:53;;;;;;;8.2;3.8;;;;;;;24.27;82.65234;961.7837;;;;
2020/07/21 16:16:19;;;;;;;7.6;3.7;;;;;;;24.39;88.51953;961.7855;;;;
2020/07/21 16:18:44;;;;;;;10.1;3.9;;;;;;;24.27;92.62598;961.6721;;;;
2020/07/21 16:21:10;;;;;;;5.5;3.5;;;;;;;24.23;96.47949;961.7556;;;;
2020/07/21 16:23:35;;;;;;;5.8;3.6;;;;;;;24.54;87.97949;961.696;;;;
2020/07/21 16:26:01;;;;;;;6;4;;;;;;;24.26;91.94922;961.5873;;;;
2020/07/21 16:28:27;;;;;;;9.8;4.3;;;;;;;23.83;95.53613;961.5096;;;;
2020/07/21 16:30:55;;;;;;;8.2;3.9;;;;;;;23.43;100;961.3381;;;;
2020/07/21 16:33:21;;;;;;;7;4;;;;;;;23.53;100;961.346;;;;
2020/07/21 16:35:46;;;;;;;5.8;4.4;;;;;;;23.84;99.20605;961.4103;;;;
2020/07/21 16:38:12;;;;;;;7.5;4.1;;;;;;;23.47;100;961.2684;;;;
2020/07/21 16:40:37;;;;;;;6;3.9;;;;;;;23.38;100;961.3267;;;;
2020/07/21 16:43:03;;;;;;;6.7;4.3;;;;;;;23.35;100;961.3819;;;;
2020/07/21 16:45:29;;;;;;;8.9;4.2;;;;;;;23.12;100;961.3914;;;;
2020/07/21 16:47:56;;;;;;;9.2;4.1;;;;;;;23.34;100;961.367;;;;
2020/07/21 16:50:21;;;;;;;9.8;4.9;;;;;;;23.51;100;961.4229;;;;
2020/07/21 16:52:46;;;;;;;8.8;3.8;;;;;;;23.81;98.73535;961.4219;;;;
2020/07/21 16:55:11;;;;;;;7.5;4.2;;;;;;;23.85;97.83008;961.4626;;;;
2020/07/21 16:57:38;;;;;;;5.5;3.4;;;;;;;23.9;94.62598;961.4625;;;;
2020/07/21 17:00:08;;;;;;;6.2;3.7;;;;;;;23.77;83.89941;961.5207;;;;
2020/07/21 17:02:28;;;;;;;4.9;2.9;;;;;;;23.73;87.01172;961.5078;;;;
2020/07/21 17:04:53;;;;;;;6.3;3.3;;;;;;;23.81;84.2168;961.566;;;;
2020/07/21 17:07:37;;;;;;;4.9;3.1;;;;;;;23.38;85.78223;961.5656;;;;
2020/07/21 17:10:02;;;;;;;6.3;3.5;;;;;;;23.61;84.29785;961.5641;;;;
2020/07/21 17:12:28;;;;;;;5.9;3.5;;;;;;;23.37;86.24316;961.4978;;;;
2020/07/21 17:15:55;;;;;;;6.4;3.8;;;;;;;23.64;85.02637;961.4836;;;;
2020/07/21 17:18:24;;;;;;;8.2;3.4;;;;;;;23.68;85.1875;961.439;;;;
2020/07/21 17:22:27;;;;;;;7.4;3.3;;;;;;;23.89;90.60449;961.4568;;;;
2020/07/21 17:24:52;;;;;;;6.5;3.2;;;;;;;23.88;84.70508;961.4582;;;;
2020/07/21 17:27:17;;;;;;;5.1;2.9;;;;;;;23.84;84.57715;961.5334;;;;
2020/07/21 17:29:42;;;;;;;6.7;3.2;;;;;;;24.01;82.36914;961.5306;;;;
2020/07/21 17:32:07;;;;;;;5.8;3.3;;;;;;;24.04;83.64355;961.5339;;;;
2020/07/21 17:34:32;;;;;;;9;3.5;;;;;;;23.92;84.04883;961.5068;;;;
2020/07/21 17:36:57;;;;;;;5.8;3.5;;;;;;;23.73;84.58105;961.4536;;;;
2020/07/21 17:39:23;;;;;;;5.9;3.3;;;;;;;23.72;88.63477;961.4514;;;;
2020/07/21 17:42:04;;;;;;;7.8;3.5;;;;;;;23.71;93.78027;961.4082;;;;
2020/07/21 17:44:29;;;;;;;6.2;3.5;;;;;;;23.88;91.67871;961.3875;;;;
2020/07/21 17:46:54;;;;;;;6.4;3.8;;;;;;;23.92;90.96387;961.4062;;;;
2020/07/21 17:49:20;;;;;;;6;3.6;;;;;;;23.97;88.51855;961.4289;;;;
2020/07/21 17:51:45;;;;;;;5.9;3.6;;;;;;;23.67;89.37109;961.4044;;;;
2020/07/21 17:54:10;;;;;;;7.3;3.7;;;;;;;23.64;91.0498;961.4034;;;;
2020/07/21 17:56:35;;;;;;;6.2;3.6;;;;;;;23.8;92.77832;961.4106;;;;
2020/07/21 17:59:00;;;;;;;5.5;3.5;;;;;;;23.8;94.83105;961.4116;;;;
2020/07/21 18:01:25;;;;;;;8;3.9;;;;;;;23.9;94.00977;961.3928;;;;
2020/07/21 18:03:50;;;;;;;6.3;3.9;;;;;;;24.1;91.17871;961.4416;;;;
2020/07/21 18:06:15;;;;;;;8.3;3.7;;;;;;;23.69;91.44043;961.4277;;;;
2020/07/21 18:08:40;;;;;;;7.5;3.8;;;;;;;23.84;89.83301;961.4194;;;;
2020/07/21 18:11:06;;;;;;;7.3;3.8;;;;;;;23.98;86.97754;961.4734;;;;
2020/07/21 18:13:31;;;;;;;5.9;3.3;;;;;;;23.98;87.00195;961.5358;;;;
2020/07/21 18:16:01;;;;;;;6.7;3.5;;;;;;;23.47;89.75879;961.5266;;;;
2020/07/21 18:18:29;;;;;;;10;3.9;;;;;;;23.24;92.9834;961.5444;;;;
2020/07/21 18:20:54;;;;;;;6.7;3.7;;;;;;;23.26;93.08008;961.5641;;;;
2020/07/21 18:23:21;;;;;;;7.5;3.8;;;;;;;23.55;90.67773;961.5923;;;;
2020/07/21 18:25:48;;;;;;;5.3;3.1;;;;;;;23.64;89.7334;961.5809;;;;
2020/07/21 18:28:15;;;;;;;8.7;3.5;;;;;;;23.51;90.75098;961.6259;;;;
2020/07/21 18:30:50;;;;;;;7.8;3.6;;;;;;;23.31;89.75195;961.6891;;;;
2020/07/21 18:33:15;;;;;;;7.1;3.7;;;;;;;23.29;86.73633;961.7087;;;;
2020/07/21 18:35:52;;;;;;;5.5;3.6;;;;;;;23.45;86.45996;961.7442;;;;
2020/07/21 18:38:20;;;;;;;5.5;3;;;;;;;23.57;84.72852;961.7443;;;;
2020/07/21 18:40:45;;;;;;;9.2;3.4;;;;;;;23.53;82.04395;961.7859;;;;
2020/07/21 18:43:10;;;;;;;5.3;2.9;;;;;;;23.69;79.43945;961.8638;;;;
2020/07/21 18:45:37;;;;;;;6.7;3.1;;;;;;;23.71;81.5293;961.8544;;;;
2020/07/21 18:48:02;;;;;;;8;3.4;;;;;;;23.59;79.49121;961.8942;;;;
2020/07/21 18:50:28;;;;;;;5.8;2.8;;;;;;;23.62;82.72266;961.9083;;;;
2020/07/21 18:52:54;;;;;;;6.1;3;;;;;;;23.71;83.35645;961.9261;;;;
2020/07/21 18:55:19;;;;;;;4.9;3.4;;;;;;;23.47;84.1875;961.9092;;;;
2020/07/21 18:57:44;;;;;;;6.6;3.6;;;;;;;23.57;85.49902;961.9207;;;;
2020/07/21 19:01:07;;;;;;;8.7;3.8;;;;;;;23.48;89.63184;961.9191;;;;
2020/07/21 19:02:35;;;;;;;5.8;3.4;;;;;;;23.26;96.29004;961.9127;;;;
2020/07/21 19:05:00;;;;;;;8.5;4.2;;;;;;;22.97;100;961.8812;;;;
2020/07/21 19:07:25;;;;;;;5.9;4.1;;;;;;;22.79;100;961.9146;;;;
2020/07/21 19:09:50;;;;;;;7.8;4.2;;;;;;;22.78;100;961.9445;;;;
2020/07/21 19:12:16;;;;;;;5.2;4;;;;;;;22.8;100;962.0115;;;;
2020/07/21 19:14:41;;;;;;;6.9;4.2;;;;;;;22.83;100;961.9886;;;;
2020/07/21 19:17:06;;;;;;;5.9;3.7;;;;;;;22.87;100;962.0264;;;;
2020/07/21 19:19:31;;;;;;;6.3;3.9;;;;;;;22.77;100;962.0306;;;;
2020/07/21 19:21:56;;;;;;;6.7;4.3;;;;;;;22.76;100;962.0639;;;;
2020/07/21 19:24:22;;;;;;;7.4;3.9;;;;;;;22.88;100;962.1102;;;;
2020/07/21 19:26:47;;;;;;;6.5;4.2;;;;;;;22.96;100;962.1298;;;;
2020/07/21 19:29:13;;;;;;;7.2;3.9;;;;;;;22.93;100;962.1196;;;;
2020/07/21 19:31:38;;;;;;;9;4.2;;;;;;;22.77;100;962.1788;;;;
2020/07/21 19:34:05;;;;;;;6;4.3;;;;;;;22.63;100;962.1404;;;;
2020/07/21 19:36:30;;;;;;;7.7;5.1;;;;;;;22.7;100;962.2185;;;;
2020/07/21 19:38:56;;;;;;;6.1;4.2;;;;;;;22.72;100;962.2236;;;;
2020/07/21 19:41:21;;;;;;;7;4.5;;;;;;;22.83;100;962.1696;;;;
2020/07/21 19:43:46;;;;;;;6.9;4.9;;;;;;;22.57;100;962.1559;;;;
2020/07/21 19:46:11;;;;;;;7.9;4.6;;;;;;;22.49;100;962.2258;;;;
2020/07/21 19:48:36;;;;;;;6.3;4.6;;;;;;;22.56;100;962.1511;;;;
2020/07/21 19:51:02;;;;;;;7;4.6;;;;;;;22.49;100;962.1728;;;;
2020/07/21 19:53:27;;;;;;;7.1;4.8;;;;;;;22.38;100;962.188;;;;
2020/07/21 19:55:54;;;;;;;9.1;4.8;;;;;;;22.52;100;962.1505;;;;
2020/07/21 19:58:19;;;;;;;7.2;4.5;;;;;;;22.86;100;962.1522;;;;
2020/07/21 20:00:52;;;;;;;9.8;4.6;;;;;;;22.39;100;962.2324;;;;
2020/07/21 20:03:18;;;;;;;8;5;;;;;;;22.22;100;962.2544;;;;
2020/07/21 20:05:43;;;;;;;6.9;4.8;;;;;;;22.1;100;962.2957;;;;
2020/07/21 20:08:12;;;;;;;7.6;5;;;;;;;22.17;100;962.3264;;;;
2020/07/21 20:10:37;;;;;;;6.1;4.7;;;;;;;22.31;100;962.3447;;;;
2020/07/21 20:13:05;;;;;;;7.5;4.8;;;;;;;22.39;100;962.3412;;;;
2020/07/21 20:15:34;;;;;;;7.9;5.2;;;;;;;22.32;100;962.3397;;;;
2020/07/21 20:17:59;;;;;;;6.9;4.9;;;;;;;22.16;100;962.4099;;;;
2020/07/21 20:20:26;;;;;;;7.2;4.7;;;;;;;22.04;100;962.4441;;;;
2020/07/21 20:22:51;;;;;;;6.4;4.4;;;;;;;22.08;100;962.445;;;;
2020/07/21 20:25:19;;;;;;;8.2;4.8;;;;;;;22.16;100;962.4689;;;;
2020/07/21 20:27:44;;;;;;;7.6;4.9;;;;;;;22.08;100;962.4535;;;;
2020/07/21 20:30:14;;;;;;;6.5;4.6;;;;;;;22.05;100;962.4472;;;;
2020/07/21 20:32:39;;;;;;;8.4;5.2;;;;;;;21.98;100;962.476;;;;
2020/07/21 20:35:12;;;;;;;6.1;4.7;;;;;;;21.97;100;962.4547;;;;
2020/07/21 20:37:39;;;;;;;11;4.9;;;;;;;22.04;100;962.4177;;;;
2020/07/21 20:40:04;;;;;;;9.5;5.4;;;;;;;21.93;100;962.3993;;;;
2020/07/21 20:42:30;;;;;;;6.3;4.9;;;;;;;22.02;100;962.4788;;;;
2020/07/21 20:44:55;;;;;;;9.1;5.1;;;;;;;22.09;100;962.4274;;;;
2020/07/21 20:47:20;;;;;;;7.2;4.8;;;;;;;22.01;100;962.4788;;;;
2020/07/21 20:51:34;;;;;;;6.3;4.7;;;;;;;22.07;100;962.3655;;;;
2020/07/21 20:53:59;;;;;;;6.3;4.2;;;;;;;22.1;100;962.3372;;;;
2020/07/21 20:56:24;;;;;;;7.6;4.5;;;;;;;22.09;100;962.4067;;;;
2020/07/21 20:58:50;;;;;;;7.3;4.6;;;;;;;22.16;100;962.4081;;;;
2020/07/21 21:01:15;;;;;;;8;4.4;;;;;;;21.98;100;962.4578;;;;
2020/07/21 21:03:41;;;;;;;6.3;4.1;;;;;;;22.06;100;962.4289;;;;
2020/07/21 21:06:06;;;;;;;7.7;4.1;;;;;;;21.63;100;962.4741;;;;
2020/07/21 21:08:31;;;;;;;5.6;4;;;;;;;21.67;100;962.4927;;;;
2020/07/21 21:11:03;;;;;;;8.7;4.3;;;;;;;21.52;100;962.5452;;;;
2020/07/21 21:13:34;;;;;;;6.1;3.8;;;;;;;21.37;100;962.5969;;;;
2020/07/21 21:15:59;;;;;;;6.9;3.9;;;;;;;21.42;100;962.6342;;;;
2020/07/21 21:18:26;;;;;;;4.9;3.6;;;;;;;21.35;94.52051;962.689;;;;
2020/07/21 21:20:51;;;;;;;7.7;3.7;;;;;;;21.32;95.74219;962.7449;;;;
2020/07/21 21:23:16;;;;;;;5.6;3.3;;;;;;;21.39;94.16504;962.769;;;;
2020/07/21 21:25:41;;;;;;;5.6;3;;;;;;;21.42;87.94141;962.7667;;;;
2020/07/21 21:28:06;;;;;;;6.5;3.2;;;;;;;21.23;86.55762;962.7791;;;;
2020/07/21 21:30:32;;;;;;;6;3.2;;;;;;;21.25;83.03711;962.8251;;;;
2020/07/21 21:32:57;;;;;;;5.8;3.1;;;;;;;21.3;83.41113;962.7506;;;;
2020/07/21 21:35:22;;;;;;;8;3.2;;;;;;;21.22;82.01758;962.7145;;;;
2020/07/21 21:37:47;;;;;;;6.5;2.9;;;;;;;21.3;80.79395;962.782;;;;
2020/07/21 21:40:12;;;;;;;7.4;3.5;;;;;;;21.37;80.46289;962.7994;;;;
2020/07/21 21:42:37;;;;;;;5.6;3;;;;;;;21.18;79.73535;962.8081;;;;
2020/07/21 21:45:02;;;;;;;5.9;3.5;;;;;;;21.12;80.52344;962.7659;;;;
2020/07/21 21:47:27;;;;;;;5.8;3.1;;;;;;;21.08;79.51563;962.7584;;;;
2020/07/21 21:49:52;;;;;;;6.8;3.3;;;;;;;21.08;80.24805;962.6837;;;;
2020/07/21 21:52:17;;;;;;;6.4;3.1;;;;;;;21.23;79.21094;962.6481;;;;
2020/07/21 21:54:43;;;;;;;6.3;2.9;;;;;;;21.17;79.48438;962.5803;;;;
2020/07/21 21:57:08;;;;;;;6;3;;;;;;;21.09;80.68555;962.6215;;;;
2020/07/21 21:59:33;;;;;;;5.6;2.9;;;;;;;20.73;79.53516;962.6389;;;;
2020/07/21 22:01:58;;;;;;;8.9;3.3;;;;;;;20.95;80.23535;962.6364;;;;
2020/07/21 22:04:23;;;;;;;5.8;2.8;;;;;;;20.84;83.18359;962.6936;;;;
2020/07/21 22:06:48;;;;;;;5.4;3.1;;;;;;;20.92;84.58887;962.7479;;;;
2020/07/21 22:09:13;;;;;;;6.7;2.9;;;;;;;20.8;84.59082;962.788;;;;
2020/07/21 22:11:38;;;;;;;5.3;2.9;;;;;;;20.86;86.18164;962.723;;;;
2020/07/21 22:14:03;;;;;;;6.3;3.1;;;;;;;20.6;89.01563;962.8098;;;;
2020/07/21 22:16:28;;;;;;;6.4;2.8;;;;;;;20.89;77.49023;962.8311;;;;
2020/07/21 22:18:54;;;;;;;7.5;2.9;;;;;;;20.96;74.99219;962.8764;;;;
2020/07/21 22:21:19;;;;;;;5.6;2.9;;;;;;;20.91;76.16309;962.9188;;;;
2020/07/21 22:23:44;;;;;;;3.9;2.6;;;;;;;20.87;78.07617;962.9814;;;;
2020/07/21 22:26:09;;;;;;;7;3.4;;;;;;;20.82;76.44238;962.9816;;;;
2020/07/21 22:28:34;;;;;;;5;2.8;;;;;;;20.68;77.06543;963.0382;;;;
2020/07/21 22:30:59;;;;;;;6;2.6;;;;;;;20.61;78.37207;963.0334;;;;
2020/07/21 22:33:24;;;;;;;5.5;2.8;;;;;;;20.6;78.00488;963.0708;;;;
2020/07/21 22:35:51;;;;;;;6.9;2.9;;;;;;;20.58;78.30664;963.0669;;;;
2020/07/21 22:38:16;;;;;;;6.1;3.1;;;;;;;20.65;77.43555;963.0338;;;;
2020/07/21 22:40:41;;;;;;;5.7;2.8;;;;;;;20.72;80.33398;963.0234;;;;
2020/07/21 22:43:06;;;;;;;7.1;2.9;;;;;;;20.77;76.40918;963.0345;;;;
2020/07/21 22:45:31;;;;;;;7.4;2.8;;;;;;;20.73;74.8584;962.9755;;;;
2020/07/21 22:47:56;;;;;;;6.2;2.8;;;;;;;20.81;76.0625;962.9086;;;;
2020/07/21 22:50:21;;;;;;;6.7;2.9;;;;;;;20.6;79.67578;962.9807;;;;
2020/07/21 22:52:46;;;;;;;6.5;3;;;;;;;20.55;78.55957;963.0037;;;;
2020/07/21 22:55:11;;;;;;;4.7;2.8;;;;;;;20.46;75.02539;962.9458;;;;
2020/07/21 22:57:36;;;;;;;5.3;2.7;;;;;;;20.57;77.35156;962.9495;;;;
2020/07/21 23:00:01;;;;;;;4.7;2.6;;;;;;;20.54;77.28711;962.9235;;;;
2020/07/21 23:02:27;;;;;;;5.9;3.2;;;;;;;20.6;74.06055;962.9689;;;;
2020/07/21 23:04:52;;;;;;;5.3;2.7;;;;;;;20.78;69.3291;963.0235;;;;
2020/07/21 23:07:22;;;;;;;6;2.9;;;;;;;20.65;71.55859;963.0453;;;;
2020/07/21 23:09:47;;;;;;;3.8;2.2;;;;;;;20.6;67.58203;963.0485;;;;
2020/07/21 23:12:12;;;;;;;5.2;2.5;;;;;;;20.3;66.31445;963.0804;;;;
2020/07/21 23:14:37;;;;;;;6.7;2.5;;;;;;;20.03;66.33301;963.1509;;;;
2020/07/21 23:17:02;;;;;;;7.2;2.7;;;;;;;20.07;66.37305;963.1962;;;;
2020/07/21 23:19:27;;;;;;;7.5;3;;;;;;;20.08;66.72754;963.1447;;;;
2020/07/21 23:21:52;;;;;;;7;2.4;;;;;;;20.04;65.94629;963.1477;;;;
2020/07/21 23:24:17;;;;;;;6;2.5;;;;;;;20.02;66.24805;963.1876;;;;
2020/07/21 23:26:43;;;;;;;6.2;2.1;;;;;;;19.93;66.28125;963.1433;;;;
2020/07/21 23:29:08;;;;;;;4.6;2.5;;;;;;;19.89;66.95605;963.1692;;;;
2020/07/21 23:31:33;;;;;;;5.6;2.4;;;;;;;19.76;66.84375;963.1833;;;;
2020/07/21 23:33:58;;;;;;;4.8;2.4;;;;;;;19.74;67.09961;963.1827;;;;
2020/07/21 23:36:23;;;;;;;6.9;2.4;;;;;;;19.94;66.77637;963.1753;;;;
2020/07/21 23:38:48;;;;;;;5.9;2.1;;;;;;;20.15;65.21973;963.1579;;;;
2020/07/21 23:41:13;;;;;;;5.5;2.4;;;;;;;20;65.19824;963.1323;;;;
2020/07/21 23:43:38;;;;;;;6.2;2.1;;;;;;;19.81;65.38184;963.1156;;;;
2020/07/21 23:46:03;;;;;;;4.6;2.2;;;;;;;19.51;64.59668;963.097;;;;
2020/07/21 23:48:28;;;;;;;6.4;2.4;;;;;;;19.59;63.8584;963.0284;;;;
2020/07/21 23:50:53;;;;;;;5.1;2.1;;;;;;;19.62;64.16602;962.9766;;;;
2020/07/21 23:53:18;;;;;;;4.4;2;;;;;;;19.31;63.93359;962.9833;;;;
2020/07/21 23:55:43;;;;;;;5;2;;;;;;;19.39;63.73438;962.9238;;;;
2020/07/21 23:58:08;;;;;;;2.7;1.9;;;;;;;19.6;63.61133;962.8918;;;;
